Key West, Florida
Current Conditions -  °F | °C
As of 6:53 AM on Thursday 29 Jan 2015 (Local Time) from KEYW Reporting Station
Few Clouds Few Clouds  
Wind Chill: 60°   Ceiling: Unl
Heat Index: 60°   Visibility: 10mi
Dew Point: 55°   Wind: 13mph
Humidity: 83%   Direction: 30°NNE
Pressure: 30.21"   Gusts: 21mph
Location:  24.55°N, 81.8°W
Report Text: KEYW 291153Z 03011G18KT 10SM FEW049 16/13 A3021 RMK AO2 SLP228 T01560128 10161 20156 53012
Loading
Personal Weather Stations






























Interactive Weather Map New forecast layout! Learn more

10-Day Weather Forecast

Advertisements
Track Severe Weather on mobile